Time;durP1;ratioP1;P1;durP2;ratioP2;P2;SDS_P1;SDS_P2;PMS_P1;PMS_P2;Temp;Humidity;BMP_temperature;BMP_pressure;BME280_temperature;BME280_humidity;BME280_pressure;Samples;Min_cycle;Max_cycle;Signal;HPM_P1;HPM_P2
2023/08/04 00:05:07;;;;;;;1.23;0.85;;;17.10;99.90;;;;;;9989560;29;20253;-76
2023/08/04 00:10:28;;;;;;;1.58;0.68;;;17.00;99.90;;;;;;9976753;29;20217;-77
2023/08/04 00:15:49;;;;;;;1.25;0.80;;;17.00;99.90;;;;;;9968095;29;20217;-76
2023/08/04 00:21:10;;;;;;;2.65;0.93;;;17.00;1.00;;;;;;10004233;29;20226;-78
2023/08/04 00:26:32;;;;;;;1.05;0.80;;;17.00;1.00;;;;;;10005200;29;20463;-76
2023/08/04 00:31:53;;;;;;;1.23;0.85;;;17.00;1.00;;;;;;10004339;29;20243;-77
2023/08/04 00:37:14;;;;;;;2.97;1.23;;;16.90;1.00;;;;;;9986744;29;20296;-76
2023/08/04 00:42:36;;;;;;;2.47;1.00;;;16.90;1.00;;;;;;9966820;29;20244;-77
2023/08/04 00:47:59;;;;;;;5.32;0.80;;;16.90;1.00;;;;;;9965859;29;20276;-77
2023/08/04 00:53:21;;;;;;;1.15;0.77;;;16.90;1.00;;;;;;9969125;29;20207;-73
2023/08/04 00:58:43;;;;;;;3.40;1.05;;;17.00;1.00;;;;;;9973489;29;20207;-78
2023/08/04 01:04:04;;;;;;;1.67;0.88;;;17.00;1.00;;;;;;10003123;29;20203;-77
2023/08/04 01:09:30;;;;;;;1.55;0.90;;;17.00;1.00;;;;;;9979718;29;20249;-77
2023/08/04 01:14:55;;;;;;;1.02;0.75;;;17.00;1.00;;;;;;10003408;29;20213;-78
2023/08/04 01:20:17;;;;;;;1.48;0.95;;;17.00;1.00;;;;;;10041088;29;20195;-77
2023/08/04 01:25:38;;;;;;;1.10;0.90;;;17.10;1.00;;;;;;10034624;29;20235;-77
2023/08/04 01:31:01;;;;;;;2.28;1.10;;;17.10;1.00;;;;;;10018542;29;20235;-77
2023/08/04 01:36:23;;;;;;;4.13;2.90;;;17.10;1.00;;;;;;10003119;29;20242;-77
2023/08/04 01:41:44;;;;;;;4.07;1.70;;;17.10;1.00;;;;;;10002941;29;20222;-76
2023/08/04 01:47:07;;;;;;;2.05;1.17;;;17.10;1.00;;;;;;9980076;29;20243;-77
2023/08/04 01:52:29;;;;;;;1.77;1.35;;;17.10;1.00;;;;;;9965067;29;20497;-74
2023/08/04 01:57:50;;;;;;;2.05;1.42;;;17.10;1.00;;;;;;9968204;29;20342;-76
2023/08/04 02:03:10;;;;;;;2.42;1.35;;;17.10;1.00;;;;;;9993969;29;20299;-77
2023/08/04 02:08:32;;;;;;;1.63;1.42;;;17.10;1.00;;;;;;9972008;29;20226;-77
2023/08/04 02:13:53;;;;;;;3.45;2.50;;;17.10;1.00;;;;;;10033580;29;20211;-77
2023/08/04 02:19:14;;;;;;;4.00;2.80;;;17.10;1.00;;;;;;10047809;29;20197;-77
2023/08/04 02:24:35;;;;;;;5.30;3.03;;;17.10;1.00;;;;;;10041800;29;20212;-77
2023/08/04 02:29:56;;;;;;;3.60;1.75;;;17.10;1.00;;;;;;10040936;29;20298;-79
2023/08/04 02:35:17;;;;;;;3.88;1.25;;;17.10;1.00;;;;;;10007919;29;20246;-77
2023/08/04 02:40:38;;;;;;;3.22;2.30;;;17.10;1.00;;;;;;9989951;29;20215;-77
2023/08/04 02:46:00;;;;;;;3.50;1.67;;;17.10;1.00;;;;;;9970620;29;20237;-76
2023/08/04 02:51:21;;;;;;;1.73;1.45;;;17.10;1.00;;;;;;9970797;29;20241;-77
2023/08/04 02:56:42;;;;;;;1.73;1.63;;;17.10;1.00;;;;;;9973219;29;20219;-76
2023/08/04 03:02:03;;;;;;;3.58;1.30;;;17.20;1.00;;;;;;9992038;29;20271;-77
2023/08/04 03:07:25;;;;;;;1.90;1.60;;;17.10;1.00;;;;;;10006836;29;20281;-77
2023/08/04 03:12:47;;;;;;;3.05;1.60;;;17.10;1.00;;;;;;10043489;29;20210;-76
2023/08/04 03:18:08;;;;;;;3.85;1.40;;;17.10;1.00;;;;;;10044741;29;20253;-77
2023/08/04 03:23:30;;;;;;;3.55;1.90;;;17.10;1.00;;;;;;10039058;29;20289;-77
2023/08/04 03:28:51;;;;;;;2.95;1.63;;;17.20;1.00;;;;;;10044334;29;20254;-77
2023/08/04 03:34:12;;;;;;;2.30;1.45;;;17.20;1.00;;;;;;9969182;29;20400;-77
2023/08/04 03:39:33;;;;;;;1.55;1.40;;;17.20;1.00;;;;;;9974663;29;20207;-77
2023/08/04 03:44:54;;;;;;;1.63;1.40;;;17.20;1.00;;;;;;9969095;29;20243;-79
2023/08/04 03:50:15;;;;;;;3.20;1.48;;;17.20;1.00;;;;;;9955120;29;20220;-78
2023/08/04 03:55:36;;;;;;;1.95;1.70;;;17.20;1.00;;;;;;9958049;29;20217;-78
2023/08/04 04:00:57;;;;;;;1.77;1.52;;;17.20;1.00;;;;;;9980998;29;20270;-78
2023/08/04 04:06:19;;;;;;;3.50;1.55;;;17.20;99.90;;;;;;9980408;29;20247;-77
2023/08/04 04:11:40;;;;;;;1.88;1.73;;;17.20;1.00;;;;;;10025128;29;20213;-76
2023/08/04 04:17:04;;;;;;;2.80;1.85;;;17.30;1.00;;;;;;10043409;29;20457;-77
2023/08/04 04:22:25;;;;;;;4.63;2.10;;;17.30;1.00;;;;;;10043988;29;20197;-76
2023/08/04 04:27:47;;;;;;;4.93;3.53;;;17.30;1.00;;;;;;10056293;29;20245;-77
2023/08/04 04:33:08;;;;;;;3.83;2.05;;;17.30;1.00;;;;;;10012101;29;20215;-77
2023/08/04 04:38:29;;;;;;;3.30;1.85;;;17.30;1.00;;;;;;9996627;29;20270;-77
2023/08/04 04:43:50;;;;;;;2.95;2.20;;;17.30;1.00;;;;;;9967231;29;20226;-76
2023/08/04 04:49:11;;;;;;;4.93;2.47;;;17.30;1.00;;;;;;9965789;29;20231;-77
2023/08/04 04:54:32;;;;;;;6.03;2.00;;;17.40;99.90;;;;;;9969581;29;20231;-75
2023/08/04 04:59:53;;;;;;;2.00;1.80;;;17.40;99.90;;;;;;9971735;29;20224;-77
2023/08/04 05:05:15;;;;;;;2.95;2.28;;;17.50;99.90;;;;;;9985527;29;20242;-78
2023/08/04 05:10:36;;;;;;;2.00;1.80;;;17.50;93.30;;;;;;10037468;29;20448;-75
2023/08/04 05:15:58;;;;;;;2.38;1.98;;;17.60;15.60;;;;;;10041233;29;20226;-78
2023/08/04 05:21:19;;;;;;;2.05;1.75;;;17.70;99.90;;;;;;9965685;29;20303;-76
2023/08/04 05:26:41;;;;;;;5.43;1.98;;;17.80;1.00;;;;;;10001634;29;20306;-78
2023/08/04 05:32:02;;;;;;;3.30;2.00;;;17.90;99.90;;;;;;10003438;29;20197;-76
2023/08/04 05:37:23;;;;;;;1.80;1.70;;;18.00;99.90;;;;;;10000491;29;20256;-76
2023/08/04 05:42:44;;;;;;;6.63;2.13;;;18.20;1.00;;;;;;9979599;29;20238;-76
2023/08/04 05:48:05;;;;;;;5.30;1.67;;;18.20;1.00;;;;;;9965117;29;20228;-77
2023/08/04 05:53:26;;;;;;;3.88;2.53;;;18.30;1.00;;;;;;9968307;29;20204;-76
2023/08/04 05:58:47;;;;;;;2.53;2.10;;;18.50;1.00;;;;;;9964840;29;20200;-77
2023/08/04 06:04:09;;;;;;;2.63;1.70;;;18.70;1.00;;;;;;9993130;29;20204;-76
2023/08/04 06:09:31;;;;;;;4.22;1.98;;;18.70;1.00;;;;;;9970572;29;20236;-77
2023/08/04 06:14:52;;;;;;;4.65;1.63;;;18.70;99.90;;;;;;9964716;29;20197;-76
2023/08/04 06:20:13;;;;;;;6.05;2.25;;;18.50;1.00;;;;;;10026092;29;20221;-78
2023/08/04 06:25:34;;;;;;;2.95;1.70;;;18.40;99.90;;;;;;10033949;29;20227;-77
2023/08/04 06:30:55;;;;;;;2.95;2.03;;;18.40;99.90;;;;;;10025681;29;20199;-76
2023/08/04 06:36:16;;;;;;;3.50;1.98;;;18.50;72.10;;;;;;10001902;29;20245;-79
2023/08/04 06:41:38;;;;;;;2.67;2.22;;;18.80;1.00;;;;;;9964425;29;20480;-76
2023/08/04 06:47:00;;;;;;;2.40;2.17;;;19.10;99.90;;;;;;9964178;29;20233;-77
2023/08/04 06:52:22;;;;;;;3.55;1.80;;;19.70;1.00;;;;;;9971834;29;20216;-78
2023/08/04 06:57:43;;;;;;;4.40;1.85;;;19.80;99.90;;;;;;9970636;29;20200;-78
2023/08/04 07:03:04;;;;;;;3.92;1.70;;;20.10;99.90;;;;;;9984405;29;20234;-78
2023/08/04 07:08:25;;;;;;;2.42;1.75;;;20.00;1.00;;;;;;10006613;29;20314;-77
2023/08/04 07:13:46;;;;;;;1.88;1.33;;;19.90;1.00;;;;;;10031717;29;20399;-78
2023/08/04 07:19:08;;;;;;;4.35;1.70;;;19.90;99.90;;;;;;10043520;29;20206;-79
2023/08/04 07:24:30;;;;;;;2.60;1.73;;;19.80;1.00;;;;;;10045327;29;20196;-76
2023/08/04 07:29:53;;;;;;;3.90;1.77;;;19.60;1.00;;;;;;10001732;29;20546;-78
2023/08/04 07:35:14;;;;;;;2.83;1.90;;;19.50;1.00;;;;;;10001709;29;20546;-80
2023/08/04 07:40:38;;;;;;;7.40;2.30;;;19.60;1.00;;;;;;10018934;29;20222;-81
2023/08/04 07:46:00;;;;;;;3.35;1.80;;;20.00;99.90;;;;;;10003878;29;20230;-77
2023/08/04 07:51:22;;;;;;;2.88;1.60;;;19.90;99.90;;;;;;9999996;29;20553;-77
2023/08/04 07:56:43;;;;;;;1.92;1.42;;;20.00;1.00;;;;;;9999569;29;20200;-77
2023/08/04 08:02:05;;;;;;;4.00;1.48;;;19.90;1.00;;;;;;10015484;29;20246;-77
2023/08/04 08:07:26;;;;;;;2.58;1.50;;;19.90;1.00;;;;;;10000447;29;20302;-77
2023/08/04 08:12:52;;;;;;;1.92;1.58;;;19.80;30.00;;;;;;10007720;29;20565;-77
2023/08/04 08:18:13;;;;;;;2.47;1.30;;;19.70;99.90;;;;;;10034751;29;20391;-79
2023/08/04 08:23:35;;;;;;;3.67;1.30;;;20.10;99.90;;;;;;10000217;29;20208;-81
2023/08/04 08:28:57;;;;;;;2.40;1.08;;;20.30;1.00;;;;;;10000139;29;20608;-91
2023/08/04 08:34:18;;;;;;;3.08;1.75;;;20.20;1.00;;;;;;9961510;29;20327;-80
2023/08/04 08:39:40;;;;;;;2.42;1.48;;;20.00;1.00;;;;;;9960858;29;20201;-76
2023/08/04 08:45:02;;;;;;;2.53;1.25;;;20.00;99.90;;;;;;9995287;29;20220;-77
2023/08/04 08:50:25;;;;;;;1.33;1.23;;;20.20;99.90;;;;;;9996437;29;20215;-79
2023/08/04 08:55:47;;;;;;;3.85;1.90;;;20.30;19.00;;;;;;10026720;29;20233;-80
2023/08/04 09:01:09;;;;;;;4.43;2.00;;;20.40;1.00;;;;;;9968018;29;20828;-78
2023/08/04 09:06:30;;;;;;;5.15;1.63;;;20.40;1.00;;;;;;9998408;29;20235;-77
2023/08/04 09:11:52;;;;;;;3.17;1.63;;;20.50;1.00;;;;;;10008575;29;20242;-77
2023/08/04 09:17:28;;;;;;;1.55;1.40;;;20.60;1.00;;;;;;10037104;29;20199;-78
2023/08/04 09:22:50;;;;;;;8.75;2.45;;;20.70;1.00;;;;;;10029658;29;20198;-78
2023/08/04 09:28:14;;;;;;;2.67;1.73;;;20.60;1.00;;;;;;10020313;29;20296;-75
2023/08/04 09:33:43;;;;;;;7.95;4.78;;;21.00;1.00;;;;;;9966309;29;20248;-78
2023/08/04 09:39:05;;;;;;;1.83;1.38;;;22.70;99.90;;;;;;9961381;29;20205;-84
2023/08/04 09:44:34;;;;;;;2.85;1.25;;;23.90;1.00;;;;;;9925686;29;20284;-79
2023/08/04 09:49:57;;;;;;;2.35;1.52;;;25.10;1.00;;;;;;9923155;29;20264;-77
2023/08/04 09:55:18;;;;;;;2.25;1.13;;;25.50;1.00;;;;;;9927971;29;20224;-77
2023/08/04 10:00:39;;;;;;;2.42;1.08;;;25.00;1.00;;;;;;9960522;29;20207;-76
2023/08/04 10:06:03;;;;;;;1.48;1.23;;;24.10;1.00;;;;;;9958822;29;20234;-81
2023/08/04 10:11:24;;;;;;;2.85;1.58;;;23.30;1.00;;;;;;9982952;29;20217;-78
2023/08/04 10:16:46;;;;;;;3.28;1.23;;;22.80;1.00;;;;;;9957603;29;20286;-77
2023/08/04 10:22:11;;;;;;;2.08;1.25;;;22.40;1.00;;;;;;9976168;29;20207;-78
2023/08/04 10:27:49;;;;;;;4.78;1.10;;;22.30;1.00;;;;;;9976669;29;20231;-76
2023/08/04 10:33:10;;;;;;;1.55;1.27;;;22.30;1.00;;;;;;9966544;29;20205;-81
2023/08/04 10:38:50;;;;;;;2.53;1.40;;;22.20;1.00;;;;;;9979971;29;21022;-77
2023/08/04 10:44:13;;;;;;;3.95;1.30;;;22.00;99.90;;;;;;9961913;29;20212;-78
2023/08/04 10:49:34;;;;;;;2.53;1.42;;;21.70;72.30;;;;;;10003026;29;20231;-76
2023/08/04 10:54:56;;;;;;;3.20;1.23;;;21.50;99.90;;;;;;9965418;29;20387;-76
2023/08/04 11:00:17;;;;;;;1.85;1.33;;;21.50;99.90;;;;;;9965243;29;20218;-75
2023/08/04 11:05:39;;;;;;;3.28;1.77;;;21.60;99.90;;;;;;9972874;29;20196;-77
2023/08/04 11:11:01;;;;;;;7.20;1.67;;;21.80;99.90;;;;;;9973585;29;20283;-77
2023/08/04 11:16:25;;;;;;;2.83;1.20;;;22.40;99.90;;;;;;10002783;29;20195;-75
2023/08/04 11:21:46;;;;;;;1.95;1.52;;;22.40;23.40;;;;;;10000517;29;20192;-80
2023/08/04 11:27:09;;;;;;;4.72;2.92;;;22.60;1.80;;;;;;9971736;29;20246;-80
2023/08/04 11:32:30;;;;;;;7.35;4.85;;;22.70;1.00;;;;;;9965684;29;20238;-80
2023/08/04 11:37:51;;;;;;;2.20;1.90;;;23.50;1.00;;;;;;9994051;29;20561;-75
2023/08/04 11:43:13;;;;;;;3.30;1.85;;;24.10;1.00;;;;;;9943884;29;20201;-80
2023/08/04 11:48:38;;;;;;;2.92;1.80;;;24.00;1.00;;;;;;9935245;29;20256;-76
2023/08/04 11:53:59;;;;;;;2.63;1.77;;;24.10;1.00;;;;;;9933247;29;20247;-76
2023/08/04 11:59:21;;;;;;;2.63;1.40;;;24.50;1.00;;;;;;9930955;29;20244;-76
2023/08/04 12:04:42;;;;;;;2.53;1.30;;;25.00;1.00;;;;;;9949771;29;20231;-83
2023/08/04 12:10:05;;;;;;;1.92;1.15;;;25.30;1.00;;;;;;9961962;29;20304;-75
2023/08/04 12:15:26;;;;;;;4.30;1.70;;;25.60;1.00;;;;;;9961851;29;20283;-86
2023/08/04 12:20:48;;;;;;;3.08;1.73;;;25.40;1.00;;;;;;9995355;29;20469;-77
2023/08/04 12:26:09;;;;;;;3.05;1.40;;;25.40;1.00;;;;;;9988340;29;20431;-83
2023/08/04 12:31:30;;;;;;;2.10;1.70;;;24.90;1.00;;;;;;9976699;29;20215;-79
2023/08/04 12:36:51;;;;;;;7.72;2.78;;;24.40;1.00;;;;;;9971373;29;20247;-75
2023/08/04 12:42:12;;;;;;;2.05;0.90;;;23.70;1.00;;;;;;9967619;29;20212;-76
2023/08/04 12:47:33;;;;;;;5.03;1.42;;;22.70;99.90;;;;;;9998891;29;20266;-76
2023/08/04 12:52:55;;;;;;;2.63;1.52;;;21.30;1.00;;;;;;9990653;29;20214;-75
2023/08/04 12:58:16;;;;;;;2.65;1.55;;;;;;;;;;9939433;29;20248;-76
2023/08/04 13:03:39;;;;;;;1.88;1.38;;;19.90;1.00;;;;;;9931727;29;20459;-74
2023/08/04 13:09:00;;;;;;;7.40;1.10;;;19.70;1.00;;;;;;9980386;29;20434;-75
2023/08/04 13:14:21;;;;;;;1.58;1.30;;;19.60;99.90;;;;;;9983523;29;20319;-74
2023/08/04 13:19:45;;;;;;;2.13;1.60;;;19.60;1.00;;;;;;9972510;29;20197;-75
2023/08/04 13:25:07;;;;;;;4.30;2.28;;;20.00;28.40;;;;;;9959740;29;20227;-76
2023/08/04 13:30:28;;;;;;;5.07;1.60;;;20.30;1.00;;;;;;9951206;29;20248;-76
2023/08/04 13:35:50;;;;;;;5.60;1.50;;;20.40;1.00;;;;;;9985634;29;20231;-75
2023/08/04 13:41:11;;;;;;;3.15;1.23;;;20.30;99.90;;;;;;9924222;29;20201;-75
2023/08/04 13:46:32;;;;;;;3.00;1.27;;;20.40;99.90;;;;;;9929856;29;20253;-75
2023/08/04 13:51:54;;;;;;;3.28;1.85;;;20.50;99.90;;;;;;9924405;29;20399;-77
2023/08/04 13:57:15;;;;;;;6.13;1.75;;;20.60;1.00;;;;;;9923963;29;20209;-75
2023/08/04 14:02:39;;;;;;;4.40;1.83;;;20.60;99.90;;;;;;9932312;29;20216;-75
2023/08/04 14:08:02;;;;;;;2.78;1.50;;;20.60;1.00;;;;;;9949812;29;20244;-76
2023/08/04 14:13:24;;;;;;;3.28;1.20;;;20.70;1.00;;;;;;9974400;29;20392;-76
2023/08/04 14:18:45;;;;;;;1.60;1.23;;;20.80;99.90;;;;;;10005730;29;20260;-76
2023/08/04 14:24:06;;;;;;;3.67;1.60;;;20.90;99.90;;;;;;9991304;29;20207;-77
2023/08/04 14:29:27;;;;;;;2.38;1.70;;;20.80;99.90;;;;;;9973657;29;20240;-77
2023/08/04 14:34:48;;;;;;;1.95;1.27;;;20.80;99.90;;;;;;9930589;29;20539;-77
2023/08/04 14:40:12;;;;;;;2.60;1.10;;;20.70;99.90;;;;;;9968103;29;20204;-75
2023/08/04 14:45:34;;;;;;;6.00;1.52;;;20.90;1.00;;;;;;9969541;29;20287;-76
2023/08/04 14:50:57;;;;;;;4.53;1.63;;;21.10;1.00;;;;;;10007293;29;20255;-76
2023/08/04 14:56:18;;;;;;;2.58;1.25;;;21.30;99.90;;;;;;9978576;29;20203;-76
2023/08/04 15:01:39;;;;;;;2.60;1.42;;;21.60;1.00;;;;;;9981838;29;20236;-76
2023/08/04 15:07:00;;;;;;;2.28;1.50;;;21.50;99.90;;;;;;9985661;29;20251;-78
2023/08/04 15:12:21;;;;;;;2.33;1.55;;;21.30;1.00;;;;;;10003096;29;20240;-80
2023/08/04 15:17:43;;;;;;;8.25;2.45;;;21.20;1.00;;;;;;10012532;29;20204;-75
2023/08/04 15:23:04;;;;;;;3.28;1.50;;;21.20;99.90;;;;;;10006030;29;20210;-76
2023/08/04 15:28:26;;;;;;;2.42;1.90;;;21.10;1.00;;;;;;9998596;29;20557;-76
2023/08/04 15:33:47;;;;;;;4.00;1.42;;;20.80;10.40;;;;;;9969113;29;20283;-74
2023/08/04 15:39:08;;;;;;;2.33;1.20;;;20.80;99.90;;;;;;9966664;29;20227;-74
2023/08/04 15:44:29;;;;;;;3.65;1.40;;;20.80;1.00;;;;;;9939197;29;20224;-76
2023/08/04 15:49:50;;;;;;;2.35;1.63;;;20.80;1.00;;;;;;9929626;29;20271;-74
2023/08/04 15:55:11;;;;;;;5.07;1.83;;;20.90;94.30;;;;;;9946466;29;20195;-74
2023/08/04 16:00:33;;;;;;;2.90;1.42;;;20.70;1.00;;;;;;9931714;29;20197;-76
2023/08/04 16:05:59;;;;;;;4.13;1.80;;;20.70;99.90;;;;;;9961346;29;20208;-75
2023/08/04 16:11:20;;;;;;;4.10;1.48;;;20.60;1.00;;;;;;9994726;29;20461;-75
2023/08/04 16:16:42;;;;;;;1.75;1.33;;;20.50;99.90;;;;;;10003470;29;20490;-76
2023/08/04 16:22:04;;;;;;;2.38;1.38;;;20.50;1.00;;;;;;9966949;29;20203;-76
2023/08/04 16:27:25;;;;;;;2.25;1.23;;;20.40;99.90;;;;;;9967825;29;20417;-77
2023/08/04 16:32:46;;;;;;;2.10;1.33;;;20.30;1.00;;;;;;9965917;29;20269;-76
2023/08/04 16:38:07;;;;;;;3.50;1.63;;;20.20;1.00;;;;;;9948227;29;20474;-75
2023/08/04 16:43:30;;;;;;;2.97;1.50;;;20.00;1.00;;;;;;9966064;29;20425;-75
2023/08/04 16:48:51;;;;;;;1.98;1.50;;;19.90;1.00;;;;;;9965566;29;20244;-77
2023/08/04 16:54:12;;;;;;;2.13;1.40;;;19.80;99.90;;;;;;9966867;29;20438;-76
2023/08/04 16:59:34;;;;;;;4.30;1.45;;;19.80;99.90;;;;;;9965971;29;20220;-73
2023/08/04 17:04:55;;;;;;;2.35;1.67;;;19.70;1.00;;;;;;9964991;29;20212;-77
2023/08/04 17:10:17;;;;;;;4.50;1.73;;;19.60;99.90;;;;;;9986374;29;20585;-76
2023/08/04 17:15:38;;;;;;;1.70;1.33;;;19.60;99.90;;;;;;10004255;29;20195;-73
2023/08/04 17:21:00;;;;;;;1.85;1.33;;;19.60;1.00;;;;;;9998590;29;20199;-76
2023/08/04 17:26:23;;;;;;;1.85;1.40;;;19.60;99.90;;;;;;10002897;29;20203;-73
2023/08/04 17:31:44;;;;;;;4.72;1.70;;;19.70;99.90;;;;;;9976984;29;20572;-75
2023/08/04 17:37:06;;;;;;;4.32;2.00;;;19.70;99.90;;;;;;9957791;29;20245;-76
2023/08/04 17:42:27;;;;;;;2.42;1.80;;;19.60;99.90;;;;;;9965530;29;20510;-74
2023/08/04 17:47:48;;;;;;;3.00;1.67;;;19.60;1.00;;;;;;9963231;29;20247;-74
2023/08/04 17:53:09;;;;;;;3.13;1.77;;;19.50;1.00;;;;;;9965535;29;20219;-73
2023/08/04 17:58:30;;;;;;;4.80;1.73;;;19.50;1.00;;;;;;9965543;29;20445;-72
2023/08/04 18:03:52;;;;;;;6.30;1.90;;;19.40;42.90;;;;;;9962039;29;20439;-78
2023/08/04 18:09:12;;;;;;;2.55;1.50;;;19.40;99.90;;;;;;9976603;29;20238;-73
2023/08/04 18:14:33;;;;;;;4.00;2.15;;;19.30;99.90;;;;;;10002804;29;20494;-76
2023/08/04 18:19:54;;;;;;;2.85;1.83;;;19.20;1.00;;;;;;9993952;29;20213;-73
2023/08/04 18:25:16;;;;;;;3.80;1.92;;;19.20;40.50;;;;;;10016832;29;20219;-73
2023/08/04 18:30:37;;;;;;;3.35;1.98;;;19.10;99.90;;;;;;9984742;29;20253;-77
2023/08/04 18:35:58;;;;;;;4.50;2.08;;;19.10;59.40;;;;;;9937978;29;20319;-74
2023/08/04 18:41:22;;;;;;;4.38;1.90;;;18.90;1.00;;;;;;9962986;29;20210;-77
2023/08/04 18:46:43;;;;;;;5.05;3.28;;;18.80;1.00;;;;;;9966765;29;20509;-75
2023/08/04 18:52:05;;;;;;;15.52;7.00;;;18.80;1.00;;;;;;9970191;29;20518;-74
2023/08/04 18:57:26;;;;;;;11.20;7.15;;;18.60;1.00;;;;;;9943444;29;20201;-75
2023/08/04 19:02:47;;;;;;;11.18;6.38;;;18.60;97.00;;;;;;9933221;29;20198;-75
2023/08/04 19:08:08;;;;;;;11.23;7.30;;;18.60;1.00;;;;;;9956686;29;20285;-74
2023/08/04 19:13:29;;;;;;;10.63;6.93;;;18.50;1.00;;;;;;9970971;29;20208;-75
2023/08/04 19:18:51;;;;;;;12.40;8.32;;;18.40;1.00;;;;;;9970270;29;20200;-74
2023/08/04 19:24:13;;;;;;;8.88;5.90;;;18.50;1.00;;;;;;9994446;29;20200;-75
2023/08/04 19:29:34;;;;;;;9.85;6.78;;;18.40;18.30;;;;;;9998750;29;20450;-75
2023/08/04 19:34:55;;;;;;;13.40;7.13;;;18.30;1.00;;;;;;9962183;29;20308;-81
2023/08/04 19:40:16;;;;;;;9.88;6.15;;;18.30;1.00;;;;;;9959454;29;20217;-75
2023/08/04 19:45:40;;;;;;;6.13;5.28;;;;;;;;;;9965722;29;20216;-74
2023/08/04 19:51:16;;;;;;;7.13;4.75;;;18.10;1.00;;;;;;9937648;29;20224;-76
2023/08/04 19:56:37;;;;;;;7.47;5.45;;;17.90;1.00;;;;;;9960000;29;20214;-76
2023/08/04 20:01:58;;;;;;;11.52;8.25;;;17.80;99.90;;;;;;9954243;29;20530;-76
2023/08/04 20:07:19;;;;;;;14.70;10.30;;;17.80;1.00;;;;;;9968729;29;20239;-76
2023/08/04 20:12:41;;;;;;;15.32;10.88;;;17.70;1.00;;;;;;9984482;29;20211;-76
2023/08/04 20:18:02;;;;;;;14.80;10.93;;;17.60;1.00;;;;;;9989096;29;20371;-75
2023/08/04 20:23:23;;;;;;;15.65;9.77;;;17.50;99.90;;;;;;9968096;29;20201;-76
2023/08/04 20:28:45;;;;;;;16.63;9.68;;;17.40;99.90;;;;;;9991145;29;20258;-76
2023/08/04 20:34:06;;;;;;;23.88;12.10;;;17.40;99.90;;;;;;9979169;29;20204;-76
2023/08/04 20:39:27;;;;;;;23.05;12.20;;;17.40;99.90;;;;;;9966520;29;20283;-76
2023/08/04 20:44:52;;;;;;;21.88;11.98;;;17.30;99.90;;;;;;9966349;29;20208;-75
2023/08/04 20:50:13;;;;;;;18.42;11.77;;;17.30;99.90;;;;;;9967329;29;20224;-75
2023/08/04 20:55:35;;;;;;;19.90;11.40;;;17.30;99.90;;;;;;9964844;29;20239;-76
2023/08/04 21:00:56;;;;;;;20.83;11.20;;;17.20;99.90;;;;;;9966718;29;20200;-75
2023/08/04 21:06:17;;;;;;;20.10;11.07;;;17.10;1.00;;;;;;9966538;29;20223;-75
2023/08/04 21:11:38;;;;;;;13.93;9.80;;;17.00;1.00;;;;;;9990260;29;20234;-77
2023/08/04 21:16:59;;;;;;;12.32;8.75;;;17.00;99.90;;;;;;9971992;29;20206;-76
2023/08/04 21:22:21;;;;;;;13.45;9.13;;;16.80;99.90;;;;;;9965308;29;20211;-76
2023/08/04 21:27:42;;;;;;;13.82;10.07;;;16.80;1.00;;;;;;9990986;29;20238;-76
2023/08/04 21:33:06;;;;;;;14.65;10.93;;;16.70;99.90;;;;;;9968384;29;20215;-76
2023/08/04 21:38:28;;;;;;;15.45;10.32;;;16.70;1.00;;;;;;9964453;29;20247;-76
2023/08/04 21:43:49;;;;;;;13.18;9.93;;;16.60;1.00;;;;;;9957403;29;20248;-75
2023/08/04 21:49:11;;;;;;;13.13;10.20;;;16.40;99.90;;;;;;9964625;29;20282;-75
2023/08/04 21:54:32;;;;;;;13.13;10.60;;;16.30;99.90;;;;;;9963819;29;20216;-76
2023/08/04 21:59:53;;;;;;;18.20;10.70;;;16.30;1.00;;;;;;9965340;29;20203;-77
2023/08/04 22:05:15;;;;;;;13.95;10.13;;;16.30;1.00;;;;;;9965206;29;20418;-75
2023/08/04 22:10:36;;;;;;;13.93;10.52;;;16.30;99.90;;;;;;9967672;29;20254;-76
2023/08/04 22:15:58;;;;;;;13.13;9.40;;;16.20;1.00;;;;;;10002904;29;20213;-76
2023/08/04 22:21:19;;;;;;;13.60;8.88;;;16.30;1.00;;;;;;10005110;29;20234;-83
2023/08/04 22:26:41;;;;;;;14.02;9.45;;;16.20;1.00;;;;;;10004081;29;20213;-83
2023/08/04 22:32:02;;;;;;;15.73;9.70;;;16.10;99.90;;;;;;9982476;29;20562;-82
2023/08/04 22:37:23;;;;;;;15.00;10.43;;;16.10;1.00;;;;;;9971788;29;20244;-76
2023/08/04 22:42:44;;;;;;;15.43;9.55;;;16.10;1.00;;;;;;9970484;29;20218;-76
2023/08/04 22:48:06;;;;;;;13.45;8.80;;;16.00;99.90;;;;;;9970271;29;20240;-77
2023/08/04 22:53:27;;;;;;;17.85;9.98;;;15.90;99.90;;;;;;9970307;29;20207;-83
2023/08/04 22:58:48;;;;;;;14.50;8.60;;;15.80;99.90;;;;;;9971604;29;20206;-76
2023/08/04 23:04:09;;;;;;;10.45;6.53;;;15.80;1.00;;;;;;9970501;29;20206;-76
2023/08/04 23:09:31;;;;;;;10.40;7.28;;;15.70;1.00;;;;;;9972600;29;20398;-76
2023/08/04 23:14:52;;;;;;;12.65;7.45;;;15.60;1.00;;;;;;9986456;29;20198;-73
2023/08/04 23:20:13;;;;;;;10.73;7.03;;;15.60;1.00;;;;;;9999037;29;20579;-75
2023/08/04 23:25:34;;;;;;;9.05;6.25;;;15.50;99.90;;;;;;10002029;29;20213;-76
2023/08/04 23:30:56;;;;;;;9.57;7.18;;;15.30;99.90;;;;;;9987745;29;20254;-76
2023/08/04 23:36:17;;;;;;;9.98;7.53;;;15.40;1.00;;;;;;9968737;29;20238;-78
2023/08/04 23:41:38;;;;;;;10.18;7.47;;;15.40;1.00;;;;;;9967749;29;20217;-76
2023/08/04 23:46:59;;;;;;;11.20;7.78;;;15.40;1.00;;;;;;10007097;29;20216;-77
2023/08/04 23:52:20;;;;;;;9.90;7.43;;;15.40;1.00;;;;;;10006778;29;20552;-76
2023/08/04 23:57:42;;;;;;;10.30;7.10;;;15.30;1.00;;;;;;9971250;29;20237;-72
